Hlavní strana
METAR-TAF:

METAR-TAF

Letiště :

Letiště Bukurešť Henriho Coandy

Bukurešť, Rumunsko

zeměpisná šířka: 44-33N, zeměpisná délka: 026-06E, výška: 95 m

Aktuální stav počasí

Zpráva byla vytvořena před 23 minutami, v 08:30 UTC
Východojihovýchodní vítr 4 kt, proměnlivý mezi východním a jihojihovýchodním
Teplota 22°C
Vlhkost vzduchu 53%
Tlak 1023 hPa
Viditelnost 10 km a více
Žádná oblačnost pod 1500 m, nevyskytují se cumulonimby.

METAR: LROP 200830Z 12004KT 080V160 CAVOK 22/12 Q1023 NOSIG

Čas: 11:53 (08:53 UTC)

Předpověď počasí

Zpráva byla vytvořena před 3 hodinami a 53 minutami, v 05:00 UTC
Předpověď platná od 20 v 06 UTC do 21 v 06 UTC
vítr z různých směrů 4 kt
Viditelnost 10 km a více
Žádná oblačnost pod 1500 m, nevyskytují se cumulonimby.

TAF: LROP 200500Z 2006/2106 VRB04KT CAVOK

Stav a předpovědi počasí z více než 4 000 letišť (zprávy METAR a TAF).

Červené a žluté tečky na mapě představují dostupné meteorologické stanice.

Když kurzor umístíte na tečku, zobrazí se název stanice.

Pak kliknutím zobrazíte stav a předpověď počasí.

Chcete-li změnit mapu, kliknutím na zelené tlačítko se znaménkem +mapu přiblížíte, kliknutím na zelené tlačítko se znaménkem – mapu oddálíte a kliknutím na zelené šipky přejdete na sousední mapy.


METAR-TAF: